sensor_id;sensor_type;location;lat;lon;timestamp;temperature;humidity
52849;DHT22;38714;53.180;5.812;2022-08-04T00:00:27;19.70;99.90
52849;DHT22;38714;53.180;5.812;2022-08-04T00:03:12;19.60;99.90
52849;DHT22;38714;53.180;5.812;2022-08-04T00:08:21;19.60;99.90
52849;DHT22;38714;53.180;5.812;2022-08-04T00:10:52;19.60;99.90
52849;DHT22;38714;53.180;5.812;2022-08-04T00:13:22;19.60;99.90
52849;DHT22;38714;53.180;5.812;2022-08-04T00:15:57;19.60;99.90
52849;DHT22;38714;53.180;5.812;2022-08-04T00:18:38;19.50;99.90
52849;DHT22;38714;53.180;5.812;2022-08-04T00:21:07;19.50;99.90
52849;DHT22;38714;53.180;5.812;2022-08-04T00:23:34;19.50;99.90
52849;DHT22;38714;53.180;5.812;2022-08-04T00:26:01;19.50;99.90
52849;DHT22;38714;53.180;5.812;2022-08-04T00:28:27;19.50;99.90
52849;DHT22;38714;53.180;5.812;2022-08-04T00:30:53;19.50;99.90
52849;DHT22;38714;53.180;5.812;2022-08-04T00:33:20;19.50;99.90
52849;DHT22;38714;53.180;5.812;2022-08-04T00:35:47;19.50;99.90
52849;DHT22;38714;53.180;5.812;2022-08-04T00:38:15;19.50;99.90
52849;DHT22;38714;53.180;5.812;2022-08-04T00:41:28;19.40;99.90
52849;DHT22;38714;53.180;5.812;2022-08-04T00:47:03;19.40;99.90
52849;DHT22;38714;53.180;5.812;2022-08-04T00:58:28;19.30;99.90
52849;DHT22;38714;53.180;5.812;2022-08-04T01:00:58;19.40;99.90
52849;DHT22;38714;53.180;5.812;2022-08-04T01:03:50;19.30;99.90
52849;DHT22;38714;53.180;5.812;2022-08-04T01:06:28;19.30;99.90
52849;DHT22;38714;53.180;5.812;2022-08-04T01:17:20;19.20;99.90
52849;DHT22;38714;53.180;5.812;2022-08-04T01:20:00;19.20;99.90
52849;DHT22;38714;53.180;5.812;2022-08-04T01:30:07;19.20;99.90
52849;DHT22;38714;53.180;5.812;2022-08-04T01:32:38;19.20;99.90
52849;DHT22;38714;53.180;5.812;2022-08-04T01:35:23;19.20;99.90
52849;DHT22;38714;53.180;5.812;2022-08-04T01:38:00;19.10;99.90
52849;DHT22;38714;53.180;5.812;2022-08-04T01:40:30;19.10;99.90
52849;DHT22;38714;53.180;5.812;2022-08-04T01:42:57;19.10;99.90
52849;DHT22;38714;53.180;5.812;2022-08-04T01:45:24;19.10;99.90
52849;DHT22;38714;53.180;5.812;2022-08-04T01:47:53;19.10;99.90
52849;DHT22;38714;53.180;5.812;2022-08-04T01:50:20;19.10;99.90
52849;DHT22;38714;53.180;5.812;2022-08-04T01:52:47;19.20;99.90
52849;DHT22;38714;53.180;5.812;2022-08-04T01:55:14;19.20;99.90
52849;DHT22;38714;53.180;5.812;2022-08-04T01:57:43;19.10;99.90
52849;DHT22;38714;53.180;5.812;2022-08-04T02:00:11;19.20;99.90
52849;DHT22;38714;53.180;5.812;2022-08-04T02:02:38;19.20;99.90
52849;DHT22;38714;53.180;5.812;2022-08-04T02:05:04;19.10;99.90
52849;DHT22;38714;53.180;5.812;2022-08-04T02:16:15;19.10;99.90
52849;DHT22;38714;53.180;5.812;2022-08-04T02:18:59;19.10;99.90
52849;DHT22;38714;53.180;5.812;2022-08-04T02:21:26;19.10;99.90
52849;DHT22;38714;53.180;5.812;2022-08-04T02:24:09;19.10;99.90
52849;DHT22;38714;53.180;5.812;2022-08-04T02:26:40;19.10;99.90
52849;DHT22;38714;53.180;5.812;2022-08-04T02:31:39;19.20;99.90
52849;DHT22;38714;53.180;5.812;2022-08-04T02:34:31;19.20;99.90
52849;DHT22;38714;53.180;5.812;2022-08-04T02:37:03;19.20;99.90
52849;DHT22;38714;53.180;5.812;2022-08-04T02:39:34;19.30;99.90
52849;DHT22;38714;53.180;5.812;2022-08-04T02:42:02;19.20;99.90
52849;DHT22;38714;53.180;5.812;2022-08-04T02:44:28;19.30;99.90
52849;DHT22;38714;53.180;5.812;2022-08-04T02:46:54;19.30;99.90
52849;DHT22;38714;53.180;5.812;2022-08-04T02:49:22;19.30;99.90
52849;DHT22;38714;53.180;5.812;2022-08-04T02:51:57;19.30;99.90
52849;DHT22;38714;53.180;5.812;2022-08-04T02:54:36;19.30;99.90
52849;DHT22;38714;53.180;5.812;2022-08-04T02:57:10;19.30;99.90
52849;DHT22;38714;53.180;5.812;2022-08-04T03:00:13;19.30;99.90
52849;DHT22;38714;53.180;5.812;2022-08-04T03:03:04;19.40;99.90
52849;DHT22;38714;53.180;5.812;2022-08-04T03:08:27;19.40;99.90
52849;DHT22;38714;53.180;5.812;2022-08-04T03:16:58;19.30;99.90
52849;DHT22;38714;53.180;5.812;2022-08-04T03:33:04;19.30;99.90
52849;DHT22;38714;53.180;5.812;2022-08-04T03:44:18;19.30;99.90
52849;DHT22;38714;53.180;5.812;2022-08-04T03:50:07;19.30;99.90
52849;DHT22;38714;53.180;5.812;2022-08-04T03:58:26;19.30;99.90
52849;DHT22;38714;53.180;5.812;2022-08-04T04:11:48;19.30;99.90
52849;DHT22;38714;53.180;5.812;2022-08-04T04:19:52;19.30;99.90
52849;DHT22;38714;53.180;5.812;2022-08-04T04:25:04;19.20;99.90
52849;DHT22;38714;53.180;5.812;2022-08-04T04:30:56;19.30;99.90
52849;DHT22;38714;53.180;5.812;2022-08-04T04:36:09;19.20;99.90
52849;DHT22;38714;53.180;5.812;2022-08-04T04:49:49;19.30;99.90
52849;DHT22;38714;53.180;5.812;2022-08-04T04:52:20;19.30;99.90
52849;DHT22;38714;53.180;5.812;2022-08-04T04:55:17;19.30;99.90
52849;DHT22;38714;53.180;5.812;2022-08-04T04:57:45;19.30;99.90
52849;DHT22;38714;53.180;5.812;2022-08-04T05:00:13;19.30;99.90
52849;DHT22;38714;53.180;5.812;2022-08-04T05:03:08;19.30;99.90
52849;DHT22;38714;53.180;5.812;2022-08-04T05:06:01;19.40;99.90
52849;DHT22;38714;53.180;5.812;2022-08-04T05:08:33;19.40;99.90
52849;DHT22;38714;53.180;5.812;2022-08-04T05:16:45;19.50;99.90
52849;DHT22;38714;53.180;5.812;2022-08-04T05:20:22;19.60;99.90
52849;DHT22;38714;53.180;5.812;2022-08-04T05:22:22;19.60;99.90
52849;DHT22;38714;53.180;5.812;2022-08-04T05:24:54;19.60;99.90
52849;DHT22;38714;53.180;5.812;2022-08-04T05:27:25;19.70;99.90
52849;DHT22;38714;53.180;5.812;2022-08-04T05:29:58;19.70;99.90
52849;DHT22;38714;53.180;5.812;2022-08-04T05:32:31;19.70;99.90
52849;DHT22;38714;53.180;5.812;2022-08-04T05:35:09;19.70;99.90
52849;DHT22;38714;53.180;5.812;2022-08-04T05:37:37;19.70;99.90
52849;DHT22;38714;53.180;5.812;2022-08-04T05:40:08;19.70;99.90
52849;DHT22;38714;53.180;5.812;2022-08-04T05:42:37;19.70;99.90
52849;DHT22;38714;53.180;5.812;2022-08-04T05:45:05;19.70;99.90
52849;DHT22;38714;53.180;5.812;2022-08-04T05:47:32;19.70;99.90
52849;DHT22;38714;53.180;5.812;2022-08-04T05:50:00;19.80;99.90
52849;DHT22;38714;53.180;5.812;2022-08-04T05:52:30;19.80;99.90
52849;DHT22;38714;53.180;5.812;2022-08-04T05:55:12;19.80;99.90
52849;DHT22;38714;53.180;5.812;2022-08-04T05:57:42;19.80;99.90
52849;DHT22;38714;53.180;5.812;2022-08-04T06:00:09;19.90;99.90
52849;DHT22;38714;53.180;5.812;2022-08-04T06:02:36;19.80;99.90
52849;DHT22;38714;53.180;5.812;2022-08-04T06:05:04;19.90;99.90
52849;DHT22;38714;53.180;5.812;2022-08-04T06:07:32;19.90;99.90
52849;DHT22;38714;53.180;5.812;2022-08-04T06:09:59;19.90;99.90
52849;DHT22;38714;53.180;5.812;2022-08-04T06:15:07;19.90;99.90
52849;DHT22;38714;53.180;5.812;2022-08-04T06:17:39;19.90;99.90
52849;DHT22;38714;53.180;5.812;2022-08-04T06:20:07;20.00;99.90
52849;DHT22;38714;53.180;5.812;2022-08-04T06:22:39;20.00;99.90
52849;DHT22;38714;53.180;5.812;2022-08-04T06:25:06;20.00;99.90
52849;DHT22;38714;53.180;5.812;2022-08-04T06:27:32;20.00;99.90
52849;DHT22;38714;53.180;5.812;2022-08-04T06:30:02;20.00;99.90
52849;DHT22;38714;53.180;5.812;2022-08-04T06:32:32;20.00;99.90
52849;DHT22;38714;53.180;5.812;2022-08-04T06:35:14;20.00;99.90
52849;DHT22;38714;53.180;5.812;2022-08-04T06:37:41;20.00;99.90
52849;DHT22;38714;53.180;5.812;2022-08-04T06:40:09;20.10;99.90
52849;DHT22;38714;53.180;5.812;2022-08-04T06:42:36;20.10;99.90
52849;DHT22;38714;53.180;5.812;2022-08-04T06:45:06;20.10;99.90
52849;DHT22;38714;53.180;5.812;2022-08-04T06:47:32;20.10;99.90
52849;DHT22;38714;53.180;5.812;2022-08-04T06:49:59;20.10;99.90
52849;DHT22;38714;53.180;5.812;2022-08-04T06:52:25;20.20;99.90
52849;DHT22;38714;53.180;5.812;2022-08-04T06:54:52;20.20;99.90
52849;DHT22;38714;53.180;5.812;2022-08-04T06:57:20;20.20;99.90
52849;DHT22;38714;53.180;5.812;2022-08-04T06:59:53;20.30;99.90
52849;DHT22;38714;53.180;5.812;2022-08-04T07:02:21;20.30;99.90
52849;DHT22;38714;53.180;5.812;2022-08-04T07:04:48;20.30;99.90
52849;DHT22;38714;53.180;5.812;2022-08-04T07:07:14;20.30;99.90
52849;DHT22;38714;53.180;5.812;2022-08-04T07:09:40;20.30;99.90
52849;DHT22;38714;53.180;5.812;2022-08-04T07:12:07;20.30;99.90
52849;DHT22;38714;53.180;5.812;2022-08-04T07:14:33;20.40;99.90
52849;DHT22;38714;53.180;5.812;2022-08-04T07:17:07;20.40;99.90
52849;DHT22;38714;53.180;5.812;2022-08-04T07:19:35;20.40;99.90
52849;DHT22;38714;53.180;5.812;2022-08-04T07:22:06;20.40;99.90
52849;DHT22;38714;53.180;5.812;2022-08-04T07:24:34;20.40;99.90
52849;DHT22;38714;53.180;5.812;2022-08-04T07:27:00;20.50;99.90
52849;DHT22;38714;53.180;5.812;2022-08-04T07:29:26;20.50;99.90
52849;DHT22;38714;53.180;5.812;2022-08-04T07:31:54;20.50;99.90
52849;DHT22;38714;53.180;5.812;2022-08-04T07:34:20;20.50;99.90
52849;DHT22;38714;53.180;5.812;2022-08-04T07:36:48;20.60;99.90
52849;DHT22;38714;53.180;5.812;2022-08-04T07:39:14;20.70;99.90
52849;DHT22;38714;53.180;5.812;2022-08-04T07:41:41;20.70;99.90
52849;DHT22;38714;53.180;5.812;2022-08-04T07:44:08;20.70;99.90
52849;DHT22;38714;53.180;5.812;2022-08-04T07:46:37;20.80;99.90
52849;DHT22;38714;53.180;5.812;2022-08-04T07:49:04;20.80;99.90
52849;DHT22;38714;53.180;5.812;2022-08-04T07:51:31;20.80;99.90
52849;DHT22;38714;53.180;5.812;2022-08-04T07:53:57;20.90;99.90
52849;DHT22;38714;53.180;5.812;2022-08-04T07:56:25;20.90;99.90
52849;DHT22;38714;53.180;5.812;2022-08-04T07:58:51;21.00;99.90
52849;DHT22;38714;53.180;5.812;2022-08-04T08:01:17;21.10;99.90
52849;DHT22;38714;53.180;5.812;2022-08-04T08:03:43;21.10;99.90
52849;DHT22;38714;53.180;5.812;2022-08-04T08:06:10;21.20;99.90
52849;DHT22;38714;53.180;5.812;2022-08-04T08:08:39;21.20;99.90
52849;DHT22;38714;53.180;5.812;2022-08-04T08:11:07;21.30;99.90
52849;DHT22;38714;53.180;5.812;2022-08-04T08:13:34;21.40;99.90
52849;DHT22;38714;53.180;5.812;2022-08-04T08:16:01;21.40;99.90
52849;DHT22;38714;53.180;5.812;2022-08-04T08:18:28;21.50;99.90
52849;DHT22;38714;53.180;5.812;2022-08-04T08:20:54;21.60;99.90
52849;DHT22;38714;53.180;5.812;2022-08-04T08:23:20;21.60;99.90
52849;DHT22;38714;53.180;5.812;2022-08-04T08:25:46;21.70;99.90
52849;DHT22;38714;53.180;5.812;2022-08-04T08:28:11;21.70;99.90
52849;DHT22;38714;53.180;5.812;2022-08-04T08:30:37;21.80;99.90
52849;DHT22;38714;53.180;5.812;2022-08-04T08:33:05;21.90;99.90
52849;DHT22;38714;53.180;5.812;2022-08-04T08:35:51;21.90;99.90
52849;DHT22;38714;53.180;5.812;2022-08-04T08:38:24;22.00;99.90
52849;DHT22;38714;53.180;5.812;2022-08-04T08:41:22;22.10;99.90
52849;DHT22;38714;53.180;5.812;2022-08-04T08:49:21;22.20;99.90
52849;DHT22;38714;53.180;5.812;2022-08-04T08:51:54;22.30;99.90
52849;DHT22;38714;53.180;5.812;2022-08-04T09:02:55;22.30;99.90
52849;DHT22;38714;53.180;5.812;2022-08-04T09:05:42;22.30;99.90
52849;DHT22;38714;53.180;5.812;2022-08-04T09:08:40;22.30;99.90
52849;DHT22;38714;53.180;5.812;2022-08-04T09:11:12;22.40;99.90
52849;DHT22;38714;53.180;5.812;2022-08-04T09:13:44;22.40;99.90
52849;DHT22;38714;53.180;5.812;2022-08-04T09:16:41;22.50;99.90
52849;DHT22;38714;53.180;5.812;2022-08-04T09:22:10;22.60;99.90
52849;DHT22;38714;53.180;5.812;2022-08-04T09:24:53;22.70;99.90
52849;DHT22;38714;53.180;5.812;2022-08-04T09:27:33;22.80;99.90
52849;DHT22;38714;53.180;5.812;2022-08-04T09:30:08;22.80;99.90
52849;DHT22;38714;53.180;5.812;2022-08-04T09:36:08;23.00;99.90
52849;DHT22;38714;53.180;5.812;2022-08-04T09:49:22;23.00;99.90
52849;DHT22;38714;53.180;5.812;2022-08-04T09:52:01;23.00;99.90
52849;DHT22;38714;53.180;5.812;2022-08-04T09:54:42;23.10;99.90
52849;DHT22;38714;53.180;5.812;2022-08-04T09:57:25;23.10;99.90
52849;DHT22;38714;53.180;5.812;2022-08-04T10:00:06;23.10;99.90
52849;DHT22;38714;53.180;5.812;2022-08-04T10:02:37;23.10;99.90
52849;DHT22;38714;53.180;5.812;2022-08-04T10:05:07;23.10;99.90
52849;DHT22;38714;53.180;5.812;2022-08-04T10:10:24;23.10;99.90
52849;DHT22;38714;53.180;5.812;2022-08-04T10:13:08;23.10;99.90
52849;DHT22;38714;53.180;5.812;2022-08-04T10:16:03;23.10;99.90
52849;DHT22;38714;53.180;5.812;2022-08-04T10:19:01;23.10;99.90
52849;DHT22;38714;53.180;5.812;2022-08-04T10:27:48;23.30;99.90
52849;DHT22;38714;53.180;5.812;2022-08-04T10:30:16;23.30;99.90
52849;DHT22;38714;53.180;5.812;2022-08-04T10:32:59;23.30;99.90
52849;DHT22;38714;53.180;5.812;2022-08-04T10:35:31;23.30;99.90
52849;DHT22;38714;53.180;5.812;2022-08-04T10:46:06;23.20;99.90
52849;DHT22;38714;53.180;5.812;2022-08-04T10:48:52;23.20;99.90
52849;DHT22;38714;53.180;5.812;2022-08-04T10:54:01;23.30;99.90
52849;DHT22;38714;53.180;5.812;2022-08-04T10:56:54;23.40;99.90
52849;DHT22;38714;53.180;5.812;2022-08-04T10:59:25;23.30;99.90
52849;DHT22;38714;53.180;5.812;2022-08-04T11:01:59;23.40;99.90
52849;DHT22;38714;53.180;5.812;2022-08-04T11:04:41;23.40;99.90
52849;DHT22;38714;53.180;5.812;2022-08-04T11:07:10;23.40;99.90
52849;DHT22;38714;53.180;5.812;2022-08-04T11:09:39;23.40;99.90
52849;DHT22;38714;53.180;5.812;2022-08-04T11:14:36;23.40;99.90
52849;DHT22;38714;53.180;5.812;2022-08-04T11:17:10;23.40;99.90
52849;DHT22;38714;53.180;5.812;2022-08-04T11:19:47;23.40;99.90
52849;DHT22;38714;53.180;5.812;2022-08-04T11:22:33;23.50;99.90
52849;DHT22;38714;53.180;5.812;2022-08-04T11:27:49;23.50;99.90
52849;DHT22;38714;53.180;5.812;2022-08-04T11:30:18;23.50;99.90
52849;DHT22;38714;53.180;5.812;2022-08-04T11:35:33;23.50;99.90
52849;DHT22;38714;53.180;5.812;2022-08-04T11:38:20;23.60;99.90
52849;DHT22;38714;53.180;5.812;2022-08-04T11:40:48;23.60;99.90
52849;DHT22;38714;53.180;5.812;2022-08-04T11:43:23;23.60;99.90
52849;DHT22;38714;53.180;5.812;2022-08-04T11:45:54;23.60;99.90
52849;DHT22;38714;53.180;5.812;2022-08-04T11:48:28;23.60;99.90
52849;DHT22;38714;53.180;5.812;2022-08-04T11:50:54;23.60;99.90
52849;DHT22;38714;53.180;5.812;2022-08-04T11:53:23;23.70;99.90
52849;DHT22;38714;53.180;5.812;2022-08-04T11:55:51;23.60;99.90
52849;DHT22;38714;53.180;5.812;2022-08-04T11:58:20;23.60;99.90
52849;DHT22;38714;53.180;5.812;2022-08-04T12:01:13;23.60;99.90
52849;DHT22;38714;53.180;5.812;2022-08-04T12:03:58;23.60;99.90
52849;DHT22;38714;53.180;5.812;2022-08-04T12:06:47;23.60;99.90
52849;DHT22;38714;53.180;5.812;2022-08-04T12:09:30;23.60;99.90
52849;DHT22;38714;53.180;5.812;2022-08-04T12:15:19;23.70;99.90
52849;DHT22;38714;53.180;5.812;2022-08-04T12:20:42;23.80;99.90
52849;DHT22;38714;53.180;5.812;2022-08-04T12:23:23;23.80;99.90
52849;DHT22;38714;53.180;5.812;2022-08-04T12:25:53;23.90;99.90
52849;DHT22;38714;53.180;5.812;2022-08-04T12:30:59;23.80;99.90
52849;DHT22;38714;53.180;5.812;2022-08-04T12:34:03;23.90;99.90
52849;DHT22;38714;53.180;5.812;2022-08-04T12:36:42;23.90;99.90
52849;DHT22;38714;53.180;5.812;2022-08-04T12:39:14;24.00;99.90
52849;DHT22;38714;53.180;5.812;2022-08-04T12:42:02;24.00;99.90
52849;DHT22;38714;53.180;5.812;2022-08-04T12:44:35;23.90;99.90
52849;DHT22;38714;53.180;5.812;2022-08-04T12:47:04;24.00;99.90
52849;DHT22;38714;53.180;5.812;2022-08-04T12:49:33;23.90;99.90
52849;DHT22;38714;53.180;5.812;2022-08-04T12:51:59;24.00;99.90
52849;DHT22;38714;53.180;5.812;2022-08-04T12:54:26;23.90;99.90
52849;DHT22;38714;53.180;5.812;2022-08-04T12:56:56;23.90;99.90
52849;DHT22;38714;53.180;5.812;2022-08-04T12:59:22;23.90;99.90
52849;DHT22;38714;53.180;5.812;2022-08-04T13:01:49;23.90;99.90
52849;DHT22;38714;53.180;5.812;2022-08-04T13:04:17;23.90;99.90
52849;DHT22;38714;53.180;5.812;2022-08-04T13:06:44;23.80;99.90
52849;DHT22;38714;53.180;5.812;2022-08-04T13:09:18;23.90;99.90
52849;DHT22;38714;53.180;5.812;2022-08-04T13:12:01;23.90;99.90
52849;DHT22;38714;53.180;5.812;2022-08-04T13:14:35;23.90;99.90
52849;DHT22;38714;53.180;5.812;2022-08-04T13:17:02;23.90;99.90
52849;DHT22;38714;53.180;5.812;2022-08-04T13:19:30;23.80;99.90
52849;DHT22;38714;53.180;5.812;2022-08-04T13:21:56;23.80;99.90
52849;DHT22;38714;53.180;5.812;2022-08-04T13:24:25;23.80;99.90
52849;DHT22;38714;53.180;5.812;2022-08-04T13:27:02;23.80;99.90
52849;DHT22;38714;53.180;5.812;2022-08-04T13:29:35;23.80;99.90
52849;DHT22;38714;53.180;5.812;2022-08-04T13:32:02;23.80;99.90
52849;DHT22;38714;53.180;5.812;2022-08-04T13:34:29;23.80;99.90
52849;DHT22;38714;53.180;5.812;2022-08-04T13:36:56;23.90;99.90
52849;DHT22;38714;53.180;5.812;2022-08-04T13:39:23;23.80;99.90
52849;DHT22;38714;53.180;5.812;2022-08-04T13:41:52;23.90;99.90
52849;DHT22;38714;53.180;5.812;2022-08-04T13:44:30;23.90;99.90
52849;DHT22;38714;53.180;5.812;2022-08-04T13:47:00;23.90;99.90
52849;DHT22;38714;53.180;5.812;2022-08-04T13:49:27;24.00;99.90
52849;DHT22;38714;53.180;5.812;2022-08-04T13:52:04;23.90;99.90
52849;DHT22;38714;53.180;5.812;2022-08-04T13:54:36;23.90;99.90
52849;DHT22;38714;53.180;5.812;2022-08-04T13:57:18;23.90;99.90
52849;DHT22;38714;53.180;5.812;2022-08-04T13:59:47;24.00;99.90
52849;DHT22;38714;53.180;5.812;2022-08-04T14:04:53;24.00;99.90
52849;DHT22;38714;53.180;5.812;2022-08-04T14:07:24;23.90;99.90
52849;DHT22;38714;53.180;5.812;2022-08-04T14:09:50;24.00;99.90
52849;DHT22;38714;53.180;5.812;2022-08-04T14:12:16;24.00;99.90
52849;DHT22;38714;53.180;5.812;2022-08-04T14:14:50;24.00;99.90
52849;DHT22;38714;53.180;5.812;2022-08-04T14:17:18;24.00;99.90
52849;DHT22;38714;53.180;5.812;2022-08-04T14:19:57;24.00;99.90
52849;DHT22;38714;53.180;5.812;2022-08-04T14:25:09;24.00;99.90
52849;DHT22;38714;53.180;5.812;2022-08-04T14:27:48;24.00;99.90
52849;DHT22;38714;53.180;5.812;2022-08-04T14:30:26;24.00;99.90
52849;DHT22;38714;53.180;5.812;2022-08-04T14:32:57;24.00;99.90
52849;DHT22;38714;53.180;5.812;2022-08-04T14:35:24;24.00;99.90
52849;DHT22;38714;53.180;5.812;2022-08-04T14:37:58;23.90;99.90
52849;DHT22;38714;53.180;5.812;2022-08-04T14:40:29;23.80;99.90
52849;DHT22;38714;53.180;5.812;2022-08-04T14:42:55;23.90;99.90
52849;DHT22;38714;53.180;5.812;2022-08-04T14:48:01;23.80;99.90
52849;DHT22;38714;53.180;5.812;2022-08-04T14:50:36;23.80;99.90
52849;DHT22;38714;53.180;5.812;2022-08-04T14:53:10;23.70;99.90
52849;DHT22;38714;53.180;5.812;2022-08-04T14:55:38;23.70;99.90
52849;DHT22;38714;53.180;5.812;2022-08-04T14:58:04;23.70;99.90
52849;DHT22;38714;53.180;5.812;2022-08-04T15:00:34;23.80;99.90
52849;DHT22;38714;53.180;5.812;2022-08-04T15:03:07;23.80;99.90
52849;DHT22;38714;53.180;5.812;2022-08-04T15:05:33;23.80;99.90
52849;DHT22;38714;53.180;5.812;2022-08-04T15:07:59;23.80;99.90
52849;DHT22;38714;53.180;5.812;2022-08-04T15:10:26;23.80;99.90
52849;DHT22;38714;53.180;5.812;2022-08-04T15:12:52;23.80;99.90
52849;DHT22;38714;53.180;5.812;2022-08-04T15:15:18;23.80;99.90
52849;DHT22;38714;53.180;5.812;2022-08-04T15:17:45;23.70;99.90
52849;DHT22;38714;53.180;5.812;2022-08-04T15:20:12;23.80;99.90
52849;DHT22;38714;53.180;5.812;2022-08-04T15:22:38;23.80;99.90
52849;DHT22;38714;53.180;5.812;2022-08-04T15:25:04;23.70;99.90
52849;DHT22;38714;53.180;5.812;2022-08-04T15:27:33;23.80;99.90
52849;DHT22;38714;53.180;5.812;2022-08-04T15:30:07;23.80;99.90
52849;DHT22;38714;53.180;5.812;2022-08-04T15:32:38;23.80;99.90
52849;DHT22;38714;53.180;5.812;2022-08-04T15:35:12;23.70;99.90
52849;DHT22;38714;53.180;5.812;2022-08-04T15:37:44;23.70;99.90
52849;DHT22;38714;53.180;5.812;2022-08-04T15:40:12;23.70;99.90
52849;DHT22;38714;53.180;5.812;2022-08-04T15:45:29;23.60;99.90
52849;DHT22;38714;53.180;5.812;2022-08-04T15:50:27;23.60;99.90
52849;DHT22;38714;53.180;5.812;2022-08-04T15:53:04;23.60;99.90
52849;DHT22;38714;53.180;5.812;2022-08-04T15:55:42;23.70;99.90
52849;DHT22;38714;53.180;5.812;2022-08-04T15:58:09;23.60;99.90
52849;DHT22;38714;53.180;5.812;2022-08-04T16:06:00;23.70;99.90
52849;DHT22;38714;53.180;5.812;2022-08-04T16:21:57;23.60;99.90
52849;DHT22;38714;53.180;5.812;2022-08-04T16:24:37;23.70;99.90
52849;DHT22;38714;53.180;5.812;2022-08-04T16:27:09;23.70;99.90
52849;DHT22;38714;53.180;5.812;2022-08-04T16:34:46;23.60;99.90
52849;DHT22;38714;53.180;5.812;2022-08-04T16:37:18;23.60;99.90
52849;DHT22;38714;53.180;5.812;2022-08-04T16:39:45;23.50;99.90
52849;DHT22;38714;53.180;5.812;2022-08-04T16:42:30;23.50;99.90
52849;DHT22;38714;53.180;5.812;2022-08-04T16:47:59;23.40;99.90
52849;DHT22;38714;53.180;5.812;2022-08-04T16:50:26;23.30;99.90
52849;DHT22;38714;53.180;5.812;2022-08-04T16:52:53;23.30;99.90
52849;DHT22;38714;53.180;5.812;2022-08-04T16:55:23;23.30;99.90
52849;DHT22;38714;53.180;5.812;2022-08-04T16:57:50;23.30;99.90
52849;DHT22;38714;53.180;5.812;2022-08-04T17:00:22;23.30;99.90
52849;DHT22;38714;53.180;5.812;2022-08-04T17:02:52;23.20;99.90
52849;DHT22;38714;53.180;5.812;2022-08-04T17:05:22;23.10;99.90
52849;DHT22;38714;53.180;5.812;2022-08-04T17:07:52;23.10;99.90
52849;DHT22;38714;53.180;5.812;2022-08-04T17:10:18;23.00;99.90
52849;DHT22;38714;53.180;5.812;2022-08-04T17:12:44;22.90;99.90
52849;DHT22;38714;53.180;5.812;2022-08-04T17:15:23;22.90;99.90
52849;DHT22;38714;53.180;5.812;2022-08-04T17:17:49;22.80;99.90
52849;DHT22;38714;53.180;5.812;2022-08-04T17:20:15;22.80;99.90
52849;DHT22;38714;53.180;5.812;2022-08-04T17:22:41;22.80;99.90
52849;DHT22;38714;53.180;5.812;2022-08-04T17:25:07;22.80;99.90
52849;DHT22;38714;53.180;5.812;2022-08-04T17:27:32;22.80;99.90
52849;DHT22;38714;53.180;5.812;2022-08-04T17:29:58;22.70;99.90
52849;DHT22;38714;53.180;5.812;2022-08-04T17:32:24;22.70;99.90
52849;DHT22;38714;53.180;5.812;2022-08-04T17:34:54;22.60;99.90
52849;DHT22;38714;53.180;5.812;2022-08-04T17:37:21;22.60;99.90
52849;DHT22;38714;53.180;5.812;2022-08-04T17:39:50;22.50;99.90
52849;DHT22;38714;53.180;5.812;2022-08-04T17:42:33;22.50;99.90
52849;DHT22;38714;53.180;5.812;2022-08-04T17:45:11;22.50;99.90
52849;DHT22;38714;53.180;5.812;2022-08-04T17:47:52;22.40;99.90
52849;DHT22;38714;53.180;5.812;2022-08-04T17:50:28;22.30;99.90
52849;DHT22;38714;53.180;5.812;2022-08-04T17:53:04;22.30;99.90
52849;DHT22;38714;53.180;5.812;2022-08-04T17:55:45;22.30;99.90
52849;DHT22;38714;53.180;5.812;2022-08-04T17:58:13;22.30;99.90
52849;DHT22;38714;53.180;5.812;2022-08-04T18:00:40;22.20;99.90
52849;DHT22;38714;53.180;5.812;2022-08-04T18:03:05;22.20;99.90
52849;DHT22;38714;53.180;5.812;2022-08-04T18:05:31;22.20;99.90
52849;DHT22;38714;53.180;5.812;2022-08-04T18:08:05;22.30;99.90
52849;DHT22;38714;53.180;5.812;2022-08-04T18:10:49;22.30;99.90
52849;DHT22;38714;53.180;5.812;2022-08-04T18:13:14;22.30;99.90
52849;DHT22;38714;53.180;5.812;2022-08-04T18:15:40;22.30;99.90
52849;DHT22;38714;53.180;5.812;2022-08-04T18:18:19;22.30;99.90
52849;DHT22;38714;53.180;5.812;2022-08-04T18:20:45;22.30;99.90
52849;DHT22;38714;53.180;5.812;2022-08-04T18:23:12;22.20;99.90
52849;DHT22;38714;53.180;5.812;2022-08-04T18:25:38;22.20;99.90
52849;DHT22;38714;53.180;5.812;2022-08-04T18:28:05;22.10;99.90
52849;DHT22;38714;53.180;5.812;2022-08-04T18:30:35;22.10;99.90
52849;DHT22;38714;53.180;5.812;2022-08-04T18:33:02;22.10;99.90
52849;DHT22;38714;53.180;5.812;2022-08-04T18:35:28;22.10;99.90
52849;DHT22;38714;53.180;5.812;2022-08-04T18:37:54;22.10;99.90
52849;DHT22;38714;53.180;5.812;2022-08-04T18:40:20;22.00;99.90
52849;DHT22;38714;53.180;5.812;2022-08-04T18:42:45;22.00;99.90
52849;DHT22;38714;53.180;5.812;2022-08-04T18:45:11;22.00;99.90
52849;DHT22;38714;53.180;5.812;2022-08-04T18:47:38;22.00;99.90
52849;DHT22;38714;53.180;5.812;2022-08-04T18:50:05;21.90;99.90
52849;DHT22;38714;53.180;5.812;2022-08-04T18:52:30;21.90;99.90
52849;DHT22;38714;53.180;5.812;2022-08-04T18:54:56;21.90;99.90
52849;DHT22;38714;53.180;5.812;2022-08-04T18:57:24;21.80;99.90
52849;DHT22;38714;53.180;5.812;2022-08-04T18:59:52;21.80;99.90
52849;DHT22;38714;53.180;5.812;2022-08-04T19:02:20;21.70;99.90
52849;DHT22;38714;53.180;5.812;2022-08-04T19:04:45;21.70;99.90
52849;DHT22;38714;53.180;5.812;2022-08-04T19:07:11;21.60;99.90
52849;DHT22;38714;53.180;5.812;2022-08-04T19:09:40;21.60;99.90
52849;DHT22;38714;53.180;5.812;2022-08-04T19:12:06;21.50;99.90
52849;DHT22;38714;53.180;5.812;2022-08-04T19:14:32;21.50;99.90
52849;DHT22;38714;53.180;5.812;2022-08-04T19:17:00;21.50;99.90
52849;DHT22;38714;53.180;5.812;2022-08-04T19:19:26;21.40;99.90
52849;DHT22;38714;53.180;5.812;2022-08-04T19:21:53;21.40;99.90
52849;DHT22;38714;53.180;5.812;2022-08-04T19:24:19;21.30;99.90
52849;DHT22;38714;53.180;5.812;2022-08-04T19:26:45;21.30;99.90
52849;DHT22;38714;53.180;5.812;2022-08-04T19:29:11;21.30;99.90
52849;DHT22;38714;53.180;5.812;2022-08-04T19:31:40;21.30;99.90
52849;DHT22;38714;53.180;5.812;2022-08-04T19:34:06;21.20;99.90
52849;DHT22;38714;53.180;5.812;2022-08-04T19:36:33;21.20;99.90
52849;DHT22;38714;53.180;5.812;2022-08-04T19:39:01;21.20;99.90
52849;DHT22;38714;53.180;5.812;2022-08-04T19:41:30;21.20;99.90
52849;DHT22;38714;53.180;5.812;2022-08-04T19:43:58;21.10;99.90
52849;DHT22;38714;53.180;5.812;2022-08-04T19:46:23;21.10;99.90
52849;DHT22;38714;53.180;5.812;2022-08-04T19:48:52;21.00;99.90
52849;DHT22;38714;53.180;5.812;2022-08-04T19:51:18;21.00;99.90